createdAt,value
2023-10-19T00:01:13.049Z,99797.59
2023-10-19T00:03:40.772Z,99793.98
2023-10-19T00:06:08.589Z,99792.10
2023-10-19T00:08:42.619Z,99791.92
2023-10-19T00:11:22.590Z,99788.52
2023-10-19T00:13:58.947Z,99786.27
2023-10-19T00:16:36.748Z,99782.30
2023-10-19T00:19:04.835Z,99778.86
2023-10-19T00:21:49.354Z,99775.45
2023-10-19T00:24:20.407Z,99764.95
2023-10-19T00:26:49.273Z,99756.86
2023-10-19T00:29:31.340Z,99758.23
2023-10-19T00:31:59.527Z,99759.27
2023-10-19T00:34:32.469Z,99756.36
2023-10-19T00:37:08.898Z,99750.02
2023-10-19T00:39:52.732Z,99750.05
2023-10-19T00:42:24.900Z,99748.52
2023-10-19T00:44:52.755Z,99740.79
2023-10-19T00:47:20.304Z,99738.23
2023-10-19T00:49:48.054Z,99736.35
2023-10-19T00:52:32.167Z,99734.97
2023-10-19T00:55:00.185Z,99732.40
2023-10-19T00:57:35.691Z,99729.81
2023-10-19T01:00:19.586Z,99727.43
2023-10-19T01:02:47.841Z,99726.90
2023-10-19T01:05:15.716Z,99724.67
2023-10-19T01:07:45.674Z,99724.34
2023-10-19T01:10:20.558Z,99727.27
2023-10-19T01:12:48.349Z,99725.03
2023-10-19T01:15:36.889Z,99728.14
2023-10-19T01:18:06.076Z,99719.02
2023-10-19T01:20:33.961Z,99715.60
2023-10-19T01:23:08.552Z,99713.89
2023-10-19T01:25:42.011Z,99714.59
2023-10-19T01:28:11.731Z,99712.17
2023-10-19T01:30:39.449Z,99708.75
2023-10-19T01:33:14.365Z,99709.95
2023-10-19T01:35:59.324Z,99704.63
2023-10-19T01:38:31.826Z,99703.77
2023-10-19T01:41:01.012Z,99701.69
2023-10-19T01:43:32.347Z,99696.52
2023-10-19T01:46:06.389Z,99694.99
2023-10-19T01:48:37.408Z,99689.83
2023-10-19T01:51:06.613Z,99689.14
2023-10-19T01:53:36.016Z,99689.14
2023-10-19T01:56:10.317Z,99687.05
2023-10-19T01:58:38.585Z,99681.89
2023-10-19T02:01:10.097Z,99680.88
2023-10-19T02:03:38.828Z,99679.86
2023-10-19T02:06:22.550Z,99677.96
2023-10-19T02:09:01.761Z,99670.39
2023-10-19T02:11:29.833Z,99664.20
2023-10-19T02:14:05.230Z,99663.34
2023-10-19T02:16:34.125Z,99658.70
2023-10-19T02:19:02.514Z,99653.71
2023-10-19T02:21:31.730Z,99644.92
2023-10-19T02:23:59.543Z,99643.71
2023-10-19T02:26:28.430Z,99645.25
2023-10-19T02:28:57.148Z,99640.10
2023-10-19T02:31:26.584Z,99638.55
2023-10-19T02:34:02.039Z,99632.19
2023-10-19T02:36:31.562Z,99632.19
2023-10-19T02:39:10.168Z,99628.58
2023-10-19T02:41:39.970Z,99624.96
2023-10-19T02:44:19.883Z,99621.86
2023-10-19T02:46:54.057Z,99614.98
2023-10-19T02:49:23.810Z,99611.00
2023-10-19T02:51:53.330Z,99608.40
2023-10-19T02:54:25.249Z,99608.21
2023-10-19T02:56:54.865Z,99612.17
2023-10-19T02:59:24.470Z,99611.64
2023-10-19T03:01:55.794Z,99609.73
2023-10-19T03:04:23.503Z,99609.73
2023-10-19T03:06:53.387Z,99604.91
2023-10-19T03:09:30.145Z,99599.55
2023-10-19T03:12:04.776Z,99598.34
2023-10-19T03:14:33.733Z,99590.94
2023-10-19T03:17:02.607Z,99584.04
2023-10-19T03:19:30.606Z,99586.27
2023-10-19T03:22:01.671Z,99581.27
2023-10-19T03:24:45.577Z,99576.81
2023-10-19T03:27:31.604Z,99570.09
2023-10-19T03:30:00.918Z,99571.10
2023-10-19T03:32:29.701Z,99570.05
2023-10-19T03:34:58.270Z,99565.55
2023-10-19T03:37:33.242Z,99561.59
2023-10-19T03:40:05.247Z,99559.50
2023-10-19T03:42:41.810Z,99553.64
2023-10-19T03:45:15.552Z,99550.50
2023-10-19T03:47:50.753Z,99543.79
2023-10-19T03:50:22.182Z,99544.80
2023-10-19T03:52:50.058Z,99542.03
2023-10-19T03:55:24.007Z,99541.14
2023-10-19T03:57:55.878Z,99539.08
2023-10-19T04:00:29.148Z,99534.23
2023-10-19T04:02:57.482Z,99531.64
2023-10-19T04:05:29.350Z,99534.56
2023-10-19T04:07:58.926Z,99537.84
2023-10-19T04:10:42.724Z,99535.95
2023-10-19T04:13:14.779Z,99535.74
2023-10-19T04:15:43.057Z,99533.33
2023-10-19T04:18:11.254Z,99527.30
2023-10-19T04:20:55.093Z,99526.08
2023-10-19T04:23:27.832Z,99529.86
2023-10-19T04:25:59.991Z,99525.89
2023-10-19T04:28:43.977Z,99522.79
2023-10-19T04:31:15.744Z,99521.76
2023-10-19T04:33:46.657Z,99523.63
2023-10-19T04:36:16.255Z,99521.55
2023-10-19T04:38:45.362Z,99519.99
2023-10-19T04:41:13.203Z,99514.98
2023-10-19T04:43:41.235Z,99502.92
2023-10-19T04:46:14.481Z,99496.36
2023-10-19T04:48:43.414Z,99495.64
2023-10-19T04:51:11.981Z,99491.65
2023-10-19T04:53:39.685Z,99491.81
2023-10-19T04:56:10.268Z,99493.85
2023-10-19T04:58:38.178Z,99495.37
2023-10-19T05:01:06.556Z,99495.86
2023-10-19T05:03:35.496Z,99496.86
2023-10-19T05:06:03.435Z,99491.66
2023-10-19T05:08:31.113Z,99491.64
2023-10-19T05:11:00.499Z,99486.11
2023-10-19T05:13:28.910Z,99484.00
2023-10-19T05:15:59.887Z,99483.15
2023-10-19T05:18:27.725Z,99484.34
2023-10-19T05:20:58.222Z,99482.60
2023-10-19T05:23:26.985Z,99477.06
2023-10-19T05:26:02.004Z,99481.69
2023-10-19T05:28:30.069Z,99487.52
2023-10-19T05:30:59.707Z,99486.84
2023-10-19T05:33:30.764Z,99478.36
2023-10-19T05:35:58.679Z,99477.63
2023-10-19T05:38:26.389Z,99479.67
2023-10-19T05:40:54.039Z,99473.45
2023-10-19T05:43:21.893Z,99475.31
2023-10-19T05:45:51.252Z,99481.82
2023-10-19T05:48:22.161Z,99484.55
2023-10-19T05:50:50.695Z,99480.91
2023-10-19T05:53:19.812Z,99474.51
2023-10-19T05:55:47.862Z,99475.70
2023-10-19T05:58:16.066Z,99477.75
2023-10-19T06:00:44.051Z,99474.45
2023-10-19T06:03:11.807Z,99470.83
2023-10-19T06:05:39.559Z,99472.34
2023-10-19T06:08:07.327Z,99473.50
2023-10-19T06:10:36.207Z,99472.25
2023-10-19T06:13:07.341Z,99473.05
2023-10-19T06:15:35.230Z,99471.42
2023-10-19T06:18:04.659Z,99473.25
2023-10-19T06:20:34.482Z,99473.50
2023-10-19T06:23:05.565Z,99472.54
2023-10-19T06:25:37.485Z,99475.39
2023-10-19T06:28:08.411Z,99476.14
2023-10-19T06:30:36.444Z,99478.60
2023-10-19T06:33:04.809Z,99482.83
2023-10-19T06:35:34.182Z,99491.90
2023-10-19T06:38:04.850Z,99497.21
2023-10-19T06:40:37.492Z,99494.87
2023-10-19T06:43:09.181Z,99494.06
2023-10-19T06:45:37.046Z,99495.31
2023-10-19T06:48:05.542Z,99492.60
2023-10-19T06:50:34.424Z,99493.52
2023-10-19T06:53:04.559Z,99492.56
2023-10-19T06:55:32.472Z,99485.88
2023-10-19T06:58:01.194Z,99478.83
2023-10-19T07:00:29.023Z,99480.80
2023-10-19T07:03:01.931Z,99484.66
2023-10-19T07:05:33.190Z,99487.68
2023-10-19T07:08:02.989Z,99486.09
2023-10-19T07:10:30.812Z,99483.40
2023-10-19T07:12:59.278Z,99483.34
2023-10-19T07:15:28.100Z,99477.70
2023-10-19T07:17:56.002Z,99473.95
2023-10-19T07:20:29.468Z,99470.95
2023-10-19T07:23:20.203Z,99471.51
2023-10-19T07:25:55.201Z,99471.70
2023-10-19T07:28:27.536Z,99463.14
2023-10-19T07:30:57.496Z,99458.18
2023-10-19T07:33:27.408Z,99452.39
2023-10-19T07:36:01.031Z,99448.14
2023-10-19T07:38:31.957Z,99439.70
2023-10-19T07:41:00.855Z,99438.04
2023-10-19T07:43:29.357Z,99436.20
2023-10-19T07:45:57.470Z,99429.67
2023-10-19T07:48:27.425Z,99421.20
2023-10-19T07:50:54.991Z,99414.60
2023-10-19T07:53:23.889Z,99412.02
2023-10-19T07:55:52.201Z,99412.04
2023-10-19T07:58:19.980Z,99409.15
2023-10-19T08:00:48.062Z,99403.29
2023-10-19T08:03:17.736Z,99397.91
2023-10-19T08:05:46.323Z,99392.13
2023-10-19T08:08:14.323Z,99391.70
2023-10-19T08:10:42.119Z,99392.13
2023-10-19T08:13:09.871Z,99391.04
2023-10-19T08:15:37.716Z,99385.36
2023-10-19T08:18:07.106Z,99387.97
2023-10-19T08:20:38.572Z,99387.69
2023-10-19T08:23:09.090Z,99386.37
2023-10-19T08:25:53.093Z,99381.41
2023-10-19T08:28:24.880Z,99379.60
2023-10-19T08:31:03.106Z,99379.66
2023-10-19T08:33:31.474Z,99377.33
2023-10-19T08:36:01.004Z,99381.59
2023-10-19T08:38:29.688Z,99379.51
2023-10-19T08:40:58.902Z,99374.44
2023-10-19T08:43:27.209Z,99369.93
2023-10-19T08:45:56.262Z,99361.88
2023-10-19T08:48:24.074Z,99355.86
2023-10-19T08:50:54.201Z,99349.26
2023-10-19T08:53:23.447Z,99345.88
2023-10-19T08:55:52.225Z,99342.46
2023-10-19T08:58:21.251Z,99336.17
2023-10-19T09:00:53.104Z,99331.80
2023-10-19T09:03:23.419Z,99329.52
2023-10-19T09:05:51.878Z,99324.65
2023-10-19T09:08:23.276Z,99317.44
2023-10-19T09:10:59.724Z,99315.69
2023-10-19T09:13:27.640Z,99314.93
2023-10-19T09:15:57.251Z,99309.94
2023-10-19T09:18:30.130Z,99307.44
2023-10-19T09:21:08.815Z,99303.74
2023-10-19T09:23:38.085Z,99296.72
2023-10-19T09:26:08.514Z,99287.01
2023-10-19T09:28:38.648Z,99282.38
2023-10-19T09:31:10.875Z,99279.29
2023-10-19T09:33:41.921Z,99277.95
2023-10-19T09:36:14.218Z,99276.73
2023-10-19T09:38:51.822Z,99276.14
2023-10-19T09:41:22.574Z,99270.00
2023-10-19T09:43:52.010Z,99262.52
2023-10-19T09:46:32.518Z,99260.42
2023-10-19T09:49:00.776Z,99259.91
2023-10-19T09:51:30.106Z,99258.35
2023-10-19T09:54:18.581Z,99249.88
2023-10-19T09:56:55.392Z,99250.94
2023-10-19T09:59:46.127Z,99255.27
2023-10-19T10:02:16.340Z,99257.86
2023-10-19T10:04:49.898Z,99256.59
2023-10-19T10:07:28.940Z,99255.79
2023-10-19T10:10:07.153Z,99249.31
2023-10-19T10:12:36.433Z,99249.36
2023-10-19T10:15:10.804Z,99247.61
2023-10-19T10:17:40.261Z,99237.50
2023-10-19T10:20:14.459Z,99233.56
2023-10-19T10:22:42.555Z,99227.17
2023-10-19T10:25:30.338Z,99225.85
2023-10-19T10:28:00.666Z,99218.70
2023-10-19T10:30:29.368Z,99215.59
2023-10-19T10:32:57.784Z,99206.30
2023-10-19T10:35:55.929Z,99202.92
2023-10-19T10:38:23.669Z,99182.60
2023-10-19T10:40:52.087Z,99173.59
2023-10-19T10:43:20.696Z,99173.15
2023-10-19T10:45:49.006Z,99163.20
2023-10-19T10:48:20.324Z,99159.86
2023-10-19T10:50:48.374Z,99154.27
2023-10-19T10:53:19.664Z,99151.33
2023-10-19T10:55:48.403Z,99148.16
2023-10-19T10:58:17.633Z,99141.92
2023-10-19T11:00:48.398Z,99134.81
2023-10-19T11:03:17.181Z,99131.33
2023-10-19T11:05:47.052Z,99132.68
2023-10-19T11:08:19.468Z,99138.61
2023-10-19T11:10:48.468Z,99138.52
2023-10-19T11:13:24.100Z,99144.01
2023-10-19T11:15:59.779Z,99151.63
2023-10-19T11:18:45.556Z,99162.33
2023-10-19T11:21:16.171Z,99156.96
2023-10-19T11:23:49.323Z,99150.73
2023-10-19T11:26:23.211Z,99147.13
2023-10-19T11:29:06.972Z,99142.61
2023-10-19T11:31:41.042Z,99142.95
2023-10-19T11:34:10.080Z,99147.77
2023-10-19T11:36:41.855Z,99151.80
2023-10-19T11:39:12.856Z,99148.85
2023-10-19T11:41:40.676Z,99149.04
2023-10-19T11:44:09.715Z,99149.72
2023-10-19T11:46:38.212Z,99144.05
2023-10-19T11:49:07.287Z,99142.78
2023-10-19T11:51:34.968Z,99145.44
2023-10-19T11:54:04.054Z,99145.07
2023-10-19T11:56:32.801Z,99141.58
2023-10-19T11:59:00.634Z,99139.59
2023-10-19T12:01:31.084Z,99130.66
2023-10-19T12:03:59.380Z,99121.28
2023-10-19T12:06:27.450Z,99116.04
2023-10-19T12:08:57.358Z,99118.56
2023-10-19T12:11:25.176Z,99111.98
2023-10-19T12:13:54.501Z,99108.96
2023-10-19T12:16:25.193Z,99107.59
2023-10-19T12:18:53.070Z,99108.10
2023-10-19T12:21:28.660Z,99107.70
2023-10-19T12:23:57.649Z,99094.63
2023-10-19T12:26:26.036Z,99087.06
2023-10-19T12:28:53.934Z,99083.38
2023-10-19T12:31:23.702Z,99077.65
2023-10-19T12:33:51.933Z,99071.95
2023-10-19T12:36:32.294Z,99067.05
2023-10-19T12:39:00.071Z,99064.31
2023-10-19T12:41:30.119Z,99057.66
2023-10-19T12:44:09.325Z,99051.88
2023-10-19T12:46:38.212Z,99042.98
2023-10-19T12:49:20.044Z,99038.50
2023-10-19T12:51:56.830Z,99028.51
2023-10-19T12:54:33.170Z,99024.64
2023-10-19T12:57:01.472Z,99016.05
2023-10-19T12:59:29.048Z,99011.70
2023-10-19T13:01:59.798Z,99007.91
2023-10-19T13:04:31.395Z,99004.56
2023-10-19T13:06:59.464Z,99003.66
2023-10-19T13:09:34.341Z,99005.45
2023-10-19T13:12:02.099Z,99001.80
2023-10-19T13:14:29.970Z,98996.68
2023-10-19T13:16:57.945Z,98999.09
2023-10-19T13:19:26.343Z,98989.43
2023-10-19T13:21:55.545Z,98985.67
2023-10-19T13:24:23.267Z,98991.19
2023-10-19T13:26:56.461Z,98990.13
2023-10-19T13:29:25.567Z,98990.01
2023-10-19T13:31:53.381Z,98981.59
2023-10-19T13:34:22.049Z,98987.27
2023-10-19T13:36:50.700Z,98985.96
2023-10-19T13:39:18.372Z,98988.46
2023-10-19T13:41:47.074Z,98998.45
2023-10-19T13:44:15.030Z,98999.96
2023-10-19T13:46:42.873Z,98998.63
2023-10-19T13:49:11.183Z,98998.55
2023-10-19T13:51:40.134Z,99002.23
2023-10-19T13:54:07.954Z,98994.45
2023-10-19T13:56:36.778Z,98992.05
2023-10-19T13:59:06.603Z,98982.21
2023-10-19T14:01:34.954Z,98979.93
2023-10-19T14:04:02.824Z,98976.27
2023-10-19T14:06:30.641Z,98975.47
2023-10-19T14:08:58.256Z,98972.56
2023-10-19T14:11:25.848Z,98974.57
2023-10-19T14:13:53.679Z,98969.28
2023-10-19T14:16:21.957Z,98965.30
2023-10-19T14:18:49.749Z,98957.55
2023-10-19T14:21:21.265Z,98958.58
2023-10-19T14:23:49.544Z,98964.66
2023-10-19T14:26:18.644Z,98966.15
2023-10-19T14:28:46.552Z,98968.69
2023-10-19T14:31:17.142Z,98973.23
2023-10-19T14:33:44.800Z,98972.91
2023-10-19T14:36:13.590Z,98974.81
2023-10-19T14:38:41.241Z,98971.73
2023-10-19T14:41:10.577Z,98965.91
2023-10-19T14:43:38.694Z,98964.92
2023-10-19T14:46:07.558Z,98961.84
2023-10-19T14:48:36.502Z,98959.28
2023-10-19T14:51:06.539Z,98962.30
2023-10-19T14:53:35.161Z,98959.66
2023-10-19T14:56:03.294Z,98961.14
2023-10-19T14:58:32.658Z,98964.02
2023-10-19T15:01:00.876Z,98960.16
2023-10-19T15:03:30.192Z,98970.06
2023-10-19T15:06:00.405Z,98973.55
2023-10-19T15:08:32.157Z,98964.20
2023-10-19T15:10:59.900Z,98947.70
2023-10-19T15:13:27.555Z,98928.56
2023-10-19T15:15:56.210Z,98921.95
2023-10-19T15:18:23.971Z,98922.98
2023-10-19T15:20:51.718Z,98930.55
2023-10-19T15:23:19.436Z,98932.92
2023-10-19T15:25:47.154Z,98937.34
2023-10-19T15:28:14.890Z,98941.23
2023-10-19T15:30:42.700Z,98924.13
2023-10-19T15:33:10.300Z,98913.34
2023-10-19T15:35:38.657Z,98912.46
2023-10-19T15:38:06.404Z,98913.94
2023-10-19T15:40:35.745Z,98922.59
2023-10-19T15:43:03.564Z,98918.50
2023-10-19T15:45:35.843Z,98921.91
2023-10-19T15:48:04.050Z,98919.73
2023-10-19T15:50:31.851Z,98917.07
2023-10-19T15:53:00.628Z,98926.37
2023-10-19T15:55:28.737Z,98924.70
2023-10-19T15:57:56.695Z,98926.58
2023-10-19T16:00:24.477Z,98925.80
2023-10-19T16:02:52.998Z,98919.44
2023-10-19T16:05:21.097Z,98920.69
2023-10-19T16:07:48.983Z,98922.77
2023-10-19T16:10:17.248Z,98923.14
2023-10-19T16:12:44.979Z,98923.91
2023-10-19T16:15:17.415Z,98922.51
2023-10-19T16:17:46.960Z,98921.08
2023-10-19T16:20:14.981Z,98911.09
2023-10-19T16:22:43.151Z,98914.42
2023-10-19T16:25:11.828Z,98912.79
2023-10-19T16:27:39.844Z,98907.61
2023-10-19T16:30:14.398Z,98905.41
2023-10-19T16:32:42.974Z,98896.59
2023-10-19T16:35:11.467Z,98887.95
2023-10-19T16:37:39.346Z,98883.48
2023-10-19T16:40:07.644Z,98887.31
2023-10-19T16:42:35.263Z,98882.91
2023-10-19T16:45:04.610Z,98882.08
2023-10-19T16:47:33.812Z,98889.45
2023-10-19T16:50:01.627Z,98892.45
2023-10-19T16:52:29.352Z,98891.01
2023-10-19T16:54:57.013Z,98896.20
2023-10-19T16:57:24.736Z,98896.53
2023-10-19T16:59:52.848Z,98899.30
2023-10-19T17:02:20.555Z,98893.11
2023-10-19T17:04:53.235Z,98893.30
2023-10-19T17:07:20.894Z,98888.06
2023-10-19T17:09:48.587Z,98899.98
2023-10-19T17:12:16.208Z,98896.77
2023-10-19T17:14:43.877Z,98898.95
2023-10-19T17:17:12.074Z,98900.63
2023-10-19T17:19:39.788Z,98894.61
2023-10-19T17:22:07.544Z,98890.15
2023-10-19T17:24:35.168Z,98895.40
2023-10-19T17:27:06.283Z,98898.69
2023-10-19T17:29:34.369Z,98895.23
2023-10-19T17:32:02.047Z,98883.50
2023-10-19T17:34:29.742Z,98888.76
2023-10-19T17:36:57.366Z,98886.01
2023-10-19T17:39:26.189Z,98877.05
2023-10-19T17:41:53.798Z,98876.98
2023-10-19T17:44:21.482Z,98872.38
2023-10-19T17:46:51.372Z,98875.67
2023-10-19T17:49:21.267Z,98878.81
2023-10-19T17:51:48.883Z,98880.89
2023-10-19T17:54:16.651Z,98881.41
2023-10-19T17:59:12.635Z,98879.86
2023-10-19T18:01:42.583Z,98885.28
2023-10-19T18:04:10.750Z,98886.21
2023-10-19T18:06:38.667Z,98884.83
2023-10-19T18:09:09.096Z,98886.02
2023-10-19T18:11:36.847Z,98885.88
2023-10-19T18:14:04.603Z,98882.79
2023-10-19T18:16:32.800Z,98882.46
2023-10-19T18:19:00.470Z,98887.33
2023-10-19T18:21:28.088Z,98884.70
2023-10-19T18:23:55.871Z,98884.31
2023-10-19T18:26:23.471Z,98884.52
2023-10-19T18:28:51.171Z,98879.71
2023-10-19T18:31:18.973Z,98873.84
2023-10-19T18:33:46.826Z,98872.79
2023-10-19T18:36:14.744Z,98858.64
2023-10-19T18:38:42.727Z,98864.01
2023-10-19T18:41:10.761Z,98865.58
2023-10-19T18:43:38.845Z,98872.36
2023-10-19T18:46:06.499Z,98869.84
2023-10-19T18:48:34.178Z,98867.43
2023-10-19T18:51:05.475Z,98863.09
2023-10-19T18:53:36.950Z,98855.11
2023-10-19T18:56:07.246Z,98852.34
2023-10-19T18:58:37.330Z,98859.29
2023-10-19T19:01:05.415Z,98866.73
2023-10-19T19:03:35.033Z,98869.39
2023-10-19T19:06:12.250Z,98863.73
2023-10-19T19:08:41.952Z,98846.43
2023-10-19T19:11:14.029Z,98841.78
2023-10-19T19:13:43.235Z,98845.15
2023-10-19T19:16:15.107Z,98837.83
2023-10-19T19:18:43.879Z,98830.41
2023-10-19T19:21:12.116Z,98831.50
2023-10-19T19:23:41.521Z,98838.83
2023-10-19T19:26:12.460Z,98836.08
2023-10-19T19:28:43.706Z,98836.05
2023-10-19T19:31:15.988Z,98832.80
2023-10-19T19:33:45.565Z,98841.48
2023-10-19T19:36:13.782Z,98843.11
2023-10-19T19:38:41.439Z,98842.95
2023-10-19T19:41:09.078Z,98834.38
2023-10-19T19:43:37.525Z,98826.63
2023-10-19T19:46:05.965Z,98819.27
2023-10-19T19:48:33.645Z,98814.98
2023-10-19T19:51:01.339Z,98816.21
2023-10-19T19:53:30.392Z,98809.86
2023-10-19T19:55:59.276Z,98803.12
2023-10-19T19:58:27.153Z,98810.58
2023-10-19T20:00:54.776Z,98817.79
2023-10-19T20:03:22.473Z,98820.73
2023-10-19T20:05:50.641Z,98815.70
2023-10-19T20:08:18.315Z,98819.88
2023-10-19T20:10:47.790Z,98816.29
2023-10-19T20:13:16.852Z,98816.77
2023-10-19T20:15:45.350Z,98817.13
2023-10-19T20:18:13.391Z,98812.51
2023-10-19T20:20:41.676Z,98811.56
2023-10-19T20:23:10.934Z,98807.81
2023-10-19T20:25:39.763Z,98803.55
2023-10-19T20:28:07.435Z,98800.56
2023-10-19T20:30:35.256Z,98796.64
2023-10-19T20:33:05.676Z,98794.31
2023-10-19T20:35:34.719Z,98788.19
2023-10-19T20:38:06.193Z,98786.21
2023-10-19T20:40:36.689Z,98779.21
2023-10-19T20:43:06.525Z,98772.48
2023-10-19T20:45:34.569Z,98765.80
2023-10-19T20:48:03.141Z,98767.23
2023-10-19T20:50:32.945Z,98768.52
2023-10-19T20:53:00.693Z,98766.69
2023-10-19T20:55:28.730Z,98762.46
2023-10-19T20:57:56.522Z,98765.98
2023-10-19T21:00:24.550Z,98761.02
2023-10-19T21:02:52.579Z,98759.19
2023-10-19T21:05:21.085Z,98755.08
2023-10-19T21:07:50.184Z,98748.20
2023-10-19T21:10:17.975Z,98744.11
2023-10-19T21:12:46.012Z,98743.95
2023-10-19T21:15:15.348Z,98747.45
2023-10-19T21:17:44.756Z,98744.09
2023-10-19T21:20:13.677Z,98743.46
2023-10-19T21:22:46.099Z,98744.71
2023-10-19T21:25:18.672Z,98744.41
2023-10-19T21:27:50.821Z,98739.81
2023-10-19T21:30:19.707Z,98735.02
2023-10-19T21:32:47.997Z,98728.86
2023-10-19T21:35:16.926Z,98726.66
2023-10-19T21:37:45.403Z,98722.73
2023-10-19T21:40:13.754Z,98718.78
2023-10-19T21:42:45.404Z,98715.21
2023-10-19T21:45:16.436Z,98704.28
2023-10-19T21:47:44.889Z,98705.58
2023-10-19T21:50:13.017Z,98703.05
2023-10-19T21:52:44.805Z,98700.85
2023-10-19T21:55:12.670Z,98694.34
2023-10-19T21:57:41.527Z,98689.28
2023-10-19T22:00:14.490Z,98684.30
2023-10-19T22:02:56.158Z,98676.05
2023-10-19T22:05:32.663Z,98664.41
2023-10-19T22:08:00.738Z,98659.49
2023-10-19T22:10:28.794Z,98654.70
2023-10-19T22:12:56.385Z,98655.42
2023-10-19T22:15:24.045Z,98654.29
2023-10-19T22:17:51.921Z,98653.68
2023-10-19T22:20:20.755Z,98658.18
2023-10-19T22:22:49.151Z,98664.25
2023-10-19T22:25:22.521Z,98670.82
2023-10-19T22:27:54.355Z,98670.31
2023-10-19T22:30:25.091Z,98672.27
2023-10-19T22:32:53.407Z,98665.69
2023-10-19T22:35:21.538Z,98651.71
2023-10-19T22:37:49.892Z,98647.19
2023-10-19T22:40:19.247Z,98645.27
2023-10-19T22:42:46.907Z,98651.66
2023-10-19T22:45:17.607Z,98660.48
2023-10-19T22:47:45.865Z,98657.71
2023-10-19T22:50:18.083Z,98642.77
2023-10-19T22:52:46.735Z,98630.41
2023-10-19T22:55:14.833Z,98631.09
2023-10-19T22:57:43.394Z,98626.40
2023-10-19T23:00:15.621Z,98641.91
2023-10-19T23:02:44.506Z,98648.09
2023-10-19T23:05:13.820Z,98650.98
2023-10-19T23:07:42.757Z,98653.52
2023-10-19T23:10:17.798Z,98653.46
2023-10-19T23:12:45.890Z,98650.48
2023-10-19T23:15:17.153Z,98643.89
2023-10-19T23:17:47.210Z,98646.51
2023-10-19T23:20:22.276Z,98648.61
2023-10-19T23:22:51.766Z,98652.77
2023-10-19T23:25:19.390Z,98653.43
2023-10-19T23:27:47.012Z,98648.05
2023-10-19T23:30:16.796Z,98632.46
2023-10-19T23:32:44.572Z,98635.08
2023-10-19T23:35:13.636Z,98646.98
2023-10-19T23:37:42.085Z,98651.16
2023-10-19T23:40:13.494Z,98651.96
2023-10-19T23:42:41.575Z,98654.52
2023-10-19T23:45:13.502Z,98661.43
2023-10-19T23:47:41.996Z,98670.11
2023-10-19T23:50:10.307Z,98671.65
2023-10-19T23:52:38.673Z,98673.90
2023-10-19T23:55:06.429Z,98672.21
2023-10-19T23:57:34.119Z,98665.33
